sensor_id;sensor_type;location;lat;lon;timestamp;P1;durP1;ratioP1;P2;durP2;ratioP2
33830;SDS011;20137;48.834;8.732;2022-12-07T00:01:07;20.33;;;12.77;;
33830;SDS011;20137;48.834;8.732;2022-12-07T00:03:33;24.50;;;13.30;;
33830;SDS011;20137;48.834;8.732;2022-12-07T00:06:00;23.05;;;12.52;;
33830;SDS011;20137;48.834;8.732;2022-12-07T00:08:26;21.65;;;11.93;;
33830;SDS011;20137;48.834;8.732;2022-12-07T00:10:52;21.92;;;12.75;;
33830;SDS011;20137;48.834;8.732;2022-12-07T00:13:18;25.50;;;12.85;;
33830;SDS011;20137;48.834;8.732;2022-12-07T00:15:44;19.83;;;12.38;;
33830;SDS011;20137;48.834;8.732;2022-12-07T00:18:10;20.67;;;11.88;;
33830;SDS011;20137;48.834;8.732;2022-12-07T00:20:36;22.02;;;12.60;;
33830;SDS011;20137;48.834;8.732;2022-12-07T00:23:02;22.63;;;12.52;;
33830;SDS011;20137;48.834;8.732;2022-12-07T00:25:29;22.30;;;12.52;;
33830;SDS011;20137;48.834;8.732;2022-12-07T00:27:55;20.25;;;11.88;;
33830;SDS011;20137;48.834;8.732;2022-12-07T00:30:22;18.52;;;11.75;;
33830;SDS011;20137;48.834;8.732;2022-12-07T00:32:48;20.52;;;11.88;;
33830;SDS011;20137;48.834;8.732;2022-12-07T00:35:14;21.67;;;12.60;;
33830;SDS011;20137;48.834;8.732;2022-12-07T00:37:40;20.98;;;12.48;;
33830;SDS011;20137;48.834;8.732;2022-12-07T00:40:06;22.08;;;12.15;;
33830;SDS011;20137;48.834;8.732;2022-12-07T00:42:32;20.35;;;12.25;;
33830;SDS011;20137;48.834;8.732;2022-12-07T00:44:58;20.25;;;10.98;;
33830;SDS011;20137;48.834;8.732;2022-12-07T00:47:24;18.42;;;11.63;;
33830;SDS011;20137;48.834;8.732;2022-12-07T00:49:50;23.17;;;12.10;;
33830;SDS011;20137;48.834;8.732;2022-12-07T00:52:18;21.00;;;12.07;;
33830;SDS011;20137;48.834;8.732;2022-12-07T00:54:46;20.90;;;12.32;;
33830;SDS011;20137;48.834;8.732;2022-12-07T00:57:12;21.95;;;11.85;;
33830;SDS011;20137;48.834;8.732;2022-12-07T00:59:38;19.73;;;11.40;;
33830;SDS011;20137;48.834;8.732;2022-12-07T01:02:04;20.98;;;11.85;;
33830;SDS011;20137;48.834;8.732;2022-12-07T01:04:32;22.40;;;12.57;;
33830;SDS011;20137;48.834;8.732;2022-12-07T01:06:59;21.05;;;11.65;;
33830;SDS011;20137;48.834;8.732;2022-12-07T01:09:25;22.23;;;12.77;;
33830;SDS011;20137;48.834;8.732;2022-12-07T01:11:51;19.08;;;11.27;;
33830;SDS011;20137;48.834;8.732;2022-12-07T01:14:17;24.25;;;12.50;;
33830;SDS011;20137;48.834;8.732;2022-12-07T01:16:43;24.05;;;12.60;;
33830;SDS011;20137;48.834;8.732;2022-12-07T01:19:09;21.95;;;12.85;;
33830;SDS011;20137;48.834;8.732;2022-12-07T01:21:35;23.27;;;12.95;;
33830;SDS011;20137;48.834;8.732;2022-12-07T01:24:06;26.67;;;12.68;;
33830;SDS011;20137;48.834;8.732;2022-12-07T01:26:32;28.10;;;13.77;;
33830;SDS011;20137;48.834;8.732;2022-12-07T01:28:58;22.85;;;13.10;;
33830;SDS011;20137;48.834;8.732;2022-12-07T01:31:26;22.02;;;12.23;;
33830;SDS011;20137;48.834;8.732;2022-12-07T01:33:54;25.58;;;14.00;;
33830;SDS011;20137;48.834;8.732;2022-12-07T01:36:21;22.55;;;12.23;;
33830;SDS011;20137;48.834;8.732;2022-12-07T01:38:48;21.45;;;12.43;;
33830;SDS011;20137;48.834;8.732;2022-12-07T01:41:17;23.75;;;11.95;;
33830;SDS011;20137;48.834;8.732;2022-12-07T01:46:28;23.88;;;13.55;;
33830;SDS011;20137;48.834;8.732;2022-12-07T01:48:54;20.08;;;12.30;;
33830;SDS011;20137;48.834;8.732;2022-12-07T01:51:20;24.98;;;13.32;;
33830;SDS011;20137;48.834;8.732;2022-12-07T01:53:46;25.65;;;14.65;;
33830;SDS011;20137;48.834;8.732;2022-12-07T01:56:13;23.88;;;13.93;;
33830;SDS011;20137;48.834;8.732;2022-12-07T01:58:40;25.00;;;12.90;;
33830;SDS011;20137;48.834;8.732;2022-12-07T02:01:07;25.73;;;14.13;;
33830;SDS011;20137;48.834;8.732;2022-12-07T02:03:37;22.73;;;12.68;;
33830;SDS011;20137;48.834;8.732;2022-12-07T02:06:05;25.42;;;12.57;;
33830;SDS011;20137;48.834;8.732;2022-12-07T02:08:31;22.85;;;12.45;;
33830;SDS011;20137;48.834;8.732;2022-12-07T02:10:57;27.77;;;13.85;;
33830;SDS011;20137;48.834;8.732;2022-12-07T02:13:28;22.33;;;12.70;;
33830;SDS011;20137;48.834;8.732;2022-12-07T02:24:10;23.33;;;12.90;;
33830;SDS011;20137;48.834;8.732;2022-12-07T02:26:43;21.55;;;12.00;;
33830;SDS011;20137;48.834;8.732;2022-12-07T02:29:14;22.70;;;11.70;;
33830;SDS011;20137;48.834;8.732;2022-12-07T02:31:44;21.52;;;12.25;;
33830;SDS011;20137;48.834;8.732;2022-12-07T02:34:14;20.13;;;12.00;;
33830;SDS011;20137;48.834;8.732;2022-12-07T02:36:43;19.60;;;12.07;;
33830;SDS011;20137;48.834;8.732;2022-12-07T02:39:14;20.00;;;11.50;;
33830;SDS011;20137;48.834;8.732;2022-12-07T02:41:52;22.95;;;12.52;;
33830;SDS011;20137;48.834;8.732;2022-12-07T02:44:21;20.15;;;11.15;;
33830;SDS011;20137;48.834;8.732;2022-12-07T02:46:58;20.05;;;11.52;;
33830;SDS011;20137;48.834;8.732;2022-12-07T02:49:25;22.20;;;11.68;;
33830;SDS011;20137;48.834;8.732;2022-12-07T02:51:53;19.83;;;10.90;;
33830;SDS011;20137;48.834;8.732;2022-12-07T02:54:20;19.67;;;10.25;;
33830;SDS011;20137;48.834;8.732;2022-12-07T02:57:02;18.50;;;10.70;;
33830;SDS011;20137;48.834;8.732;2022-12-07T03:10:07;18.55;;;10.73;;
33830;SDS011;20137;48.834;8.732;2022-12-07T03:12:37;18.50;;;9.75;;
33830;SDS011;20137;48.834;8.732;2022-12-07T03:15:12;15.00;;;8.60;;
33830;SDS011;20137;48.834;8.732;2022-12-07T03:17:40;17.20;;;9.02;;
33830;SDS011;20137;48.834;8.732;2022-12-07T03:20:09;15.02;;;8.95;;
33830;SDS011;20137;48.834;8.732;2022-12-07T03:22:37;21.13;;;12.70;;
33830;SDS011;20137;48.834;8.732;2022-12-07T03:25:05;26.77;;;16.80;;
33830;SDS011;20137;48.834;8.732;2022-12-07T03:27:37;19.20;;;13.43;;
33830;SDS011;20137;48.834;8.732;2022-12-07T03:30:08;18.67;;;11.48;;
33830;SDS011;20137;48.834;8.732;2022-12-07T03:35:09;13.07;;;7.18;;
33830;SDS011;20137;48.834;8.732;2022-12-07T03:42:47;11.73;;;6.57;;
33830;SDS011;20137;48.834;8.732;2022-12-07T03:45:14;10.10;;;6.07;;
33830;SDS011;20137;48.834;8.732;2022-12-07T03:50:09;12.07;;;6.15;;
33830;SDS011;20137;48.834;8.732;2022-12-07T03:52:59;10.73;;;6.07;;
33830;SDS011;20137;48.834;8.732;2022-12-07T03:55:28;7.47;;;4.75;;
33830;SDS011;20137;48.834;8.732;2022-12-07T03:58:04;8.52;;;5.38;;
33830;SDS011;20137;48.834;8.732;2022-12-07T04:00:31;12.32;;;5.65;;
33830;SDS011;20137;48.834;8.732;2022-12-07T04:02:57;8.43;;;4.85;;
33830;SDS011;20137;48.834;8.732;2022-12-07T04:05:24;11.65;;;5.05;;
33830;SDS011;20137;48.834;8.732;2022-12-07T04:07:50;8.32;;;5.13;;
33830;SDS011;20137;48.834;8.732;2022-12-07T04:10:16;9.68;;;5.50;;
33830;SDS011;20137;48.834;8.732;2022-12-07T04:12:43;11.10;;;5.80;;
33830;SDS011;20137;48.834;8.732;2022-12-07T04:15:09;10.05;;;6.15;;
33830;SDS011;20137;48.834;8.732;2022-12-07T04:17:35;11.63;;;6.82;;
33830;SDS011;20137;48.834;8.732;2022-12-07T04:20:02;10.40;;;6.47;;
33830;SDS011;20137;48.834;8.732;2022-12-07T04:22:29;9.35;;;5.90;;
33830;SDS011;20137;48.834;8.732;2022-12-07T04:24:55;9.38;;;5.90;;
33830;SDS011;20137;48.834;8.732;2022-12-07T04:27:21;8.73;;;5.35;;
33830;SDS011;20137;48.834;8.732;2022-12-07T04:29:47;8.98;;;5.30;;
33830;SDS011;20137;48.834;8.732;2022-12-07T04:32:13;10.23;;;4.80;;
33830;SDS011;20137;48.834;8.732;2022-12-07T04:34:39;10.55;;;4.85;;
33830;SDS011;20137;48.834;8.732;2022-12-07T04:37:06;9.52;;;6.07;;
33830;SDS011;20137;48.834;8.732;2022-12-07T04:39:32;10.02;;;5.68;;
33830;SDS011;20137;48.834;8.732;2022-12-07T04:41:59;8.35;;;5.15;;
33830;SDS011;20137;48.834;8.732;2022-12-07T04:44:25;11.82;;;5.53;;
33830;SDS011;20137;48.834;8.732;2022-12-07T04:46:52;10.43;;;5.32;;
33830;SDS011;20137;48.834;8.732;2022-12-07T04:49:19;9.77;;;4.53;;
33830;SDS011;20137;48.834;8.732;2022-12-07T04:51:45;10.05;;;5.68;;
33830;SDS011;20137;48.834;8.732;2022-12-07T04:54:12;15.68;;;8.07;;
33830;SDS011;20137;48.834;8.732;2022-12-07T04:56:38;10.18;;;5.80;;
33830;SDS011;20137;48.834;8.732;2022-12-07T04:59:04;9.77;;;6.07;;
33830;SDS011;20137;48.834;8.732;2022-12-07T05:01:31;10.25;;;5.75;;
33830;SDS011;20137;48.834;8.732;2022-12-07T05:03:57;10.88;;;6.65;;
33830;SDS011;20137;48.834;8.732;2022-12-07T05:06:23;9.30;;;5.65;;
33830;SDS011;20137;48.834;8.732;2022-12-07T05:08:49;7.93;;;5.10;;
33830;SDS011;20137;48.834;8.732;2022-12-07T05:11:16;10.63;;;6.47;;
33830;SDS011;20137;48.834;8.732;2022-12-07T05:14:01;8.63;;;5.55;;
33830;SDS011;20137;48.834;8.732;2022-12-07T05:16:28;11.40;;;6.03;;
33830;SDS011;20137;48.834;8.732;2022-12-07T05:18:54;9.38;;;5.38;;
33830;SDS011;20137;48.834;8.732;2022-12-07T05:21:21;11.18;;;6.38;;
33830;SDS011;20137;48.834;8.732;2022-12-07T05:23:47;10.02;;;5.55;;
33830;SDS011;20137;48.834;8.732;2022-12-07T05:26:13;9.82;;;5.68;;
33830;SDS011;20137;48.834;8.732;2022-12-07T05:28:39;15.45;;;6.90;;
33830;SDS011;20137;48.834;8.732;2022-12-07T05:31:06;14.60;;;6.72;;
33830;SDS011;20137;48.834;8.732;2022-12-07T05:33:32;13.77;;;7.22;;
33830;SDS011;20137;48.834;8.732;2022-12-07T05:35:58;11.32;;;6.78;;
33830;SDS011;20137;48.834;8.732;2022-12-07T05:38:30;12.23;;;7.20;;
33830;SDS011;20137;48.834;8.732;2022-12-07T05:40:59;12.60;;;7.18;;
33830;SDS011;20137;48.834;8.732;2022-12-07T05:43:26;13.27;;;7.20;;
33830;SDS011;20137;48.834;8.732;2022-12-07T05:45:52;16.83;;;7.63;;
33830;SDS011;20137;48.834;8.732;2022-12-07T05:48:18;13.98;;;6.55;;
33830;SDS011;20137;48.834;8.732;2022-12-07T05:50:47;11.50;;;6.60;;
33830;SDS011;20137;48.834;8.732;2022-12-07T05:53:13;11.35;;;6.00;;
33830;SDS011;20137;48.834;8.732;2022-12-07T05:55:39;13.35;;;6.93;;
33830;SDS011;20137;48.834;8.732;2022-12-07T05:58:05;14.93;;;7.90;;
33830;SDS011;20137;48.834;8.732;2022-12-07T06:00:49;12.95;;;7.57;;
33830;SDS011;20137;48.834;8.732;2022-12-07T06:03:16;13.82;;;8.00;;
33830;SDS011;20137;48.834;8.732;2022-12-07T06:05:42;14.07;;;7.88;;
33830;SDS011;20137;48.834;8.732;2022-12-07T06:08:08;13.40;;;7.13;;
33830;SDS011;20137;48.834;8.732;2022-12-07T06:10:34;15.02;;;6.93;;
33830;SDS011;20137;48.834;8.732;2022-12-07T06:13:00;15.88;;;7.47;;
33830;SDS011;20137;48.834;8.732;2022-12-07T06:15:26;17.80;;;9.35;;
33830;SDS011;20137;48.834;8.732;2022-12-07T06:17:52;13.45;;;7.05;;
33830;SDS011;20137;48.834;8.732;2022-12-07T06:20:18;10.43;;;6.40;;
33830;SDS011;20137;48.834;8.732;2022-12-07T06:22:44;9.00;;;4.95;;
33830;SDS011;20137;48.834;8.732;2022-12-07T06:25:10;8.75;;;5.30;;
33830;SDS011;20137;48.834;8.732;2022-12-07T06:27:36;8.23;;;4.85;;
33830;SDS011;20137;48.834;8.732;2022-12-07T06:30:03;6.25;;;4.10;;
33830;SDS011;20137;48.834;8.732;2022-12-07T06:32:32;7.95;;;4.60;;
33830;SDS011;20137;48.834;8.732;2022-12-07T06:34:59;9.05;;;4.93;;
33830;SDS011;20137;48.834;8.732;2022-12-07T06:37:25;7.45;;;4.63;;
33830;SDS011;20137;48.834;8.732;2022-12-07T06:39:51;6.50;;;4.05;;
33830;SDS011;20137;48.834;8.732;2022-12-07T06:42:17;7.88;;;4.65;;
33830;SDS011;20137;48.834;8.732;2022-12-07T06:44:43;7.55;;;4.40;;
33830;SDS011;20137;48.834;8.732;2022-12-07T06:47:09;7.25;;;4.57;;
33830;SDS011;20137;48.834;8.732;2022-12-07T06:49:36;8.00;;;4.57;;
33830;SDS011;20137;48.834;8.732;2022-12-07T06:52:02;7.53;;;4.47;;
33830;SDS011;20137;48.834;8.732;2022-12-07T06:54:30;6.88;;;4.68;;
33830;SDS011;20137;48.834;8.732;2022-12-07T06:56:56;9.65;;;4.82;;
33830;SDS011;20137;48.834;8.732;2022-12-07T06:59:22;7.78;;;4.75;;
33830;SDS011;20137;48.834;8.732;2022-12-07T07:01:48;6.80;;;4.43;;
33830;SDS011;20137;48.834;8.732;2022-12-07T07:04:14;9.20;;;4.63;;
33830;SDS011;20137;48.834;8.732;2022-12-07T07:06:40;11.15;;;6.75;;
33830;SDS011;20137;48.834;8.732;2022-12-07T07:09:06;8.27;;;4.55;;
33830;SDS011;20137;48.834;8.732;2022-12-07T07:11:34;8.05;;;4.28;;
33830;SDS011;20137;48.834;8.732;2022-12-07T07:14:00;8.80;;;4.65;;
33830;SDS011;20137;48.834;8.732;2022-12-07T07:16:27;6.25;;;4.00;;
33830;SDS011;20137;48.834;8.732;2022-12-07T07:18:54;6.80;;;4.32;;
33830;SDS011;20137;48.834;8.732;2022-12-07T07:21:20;8.15;;;4.63;;
33830;SDS011;20137;48.834;8.732;2022-12-07T07:23:46;9.13;;;4.63;;
33830;SDS011;20137;48.834;8.732;2022-12-07T07:26:12;7.32;;;3.50;;
33830;SDS011;20137;48.834;8.732;2022-12-07T07:28:38;7.15;;;3.97;;
33830;SDS011;20137;48.834;8.732;2022-12-07T07:31:04;7.13;;;3.60;;
33830;SDS011;20137;48.834;8.732;2022-12-07T07:33:30;5.95;;;3.53;;
33830;SDS011;20137;48.834;8.732;2022-12-07T07:35:56;6.53;;;4.22;;
33830;SDS011;20137;48.834;8.732;2022-12-07T07:38:22;8.18;;;4.38;;
33830;SDS011;20137;48.834;8.732;2022-12-07T07:40:48;5.50;;;3.75;;
33830;SDS011;20137;48.834;8.732;2022-12-07T07:43:14;6.68;;;3.92;;
33830;SDS011;20137;48.834;8.732;2022-12-07T07:45:40;6.55;;;3.65;;
33830;SDS011;20137;48.834;8.732;2022-12-07T07:48:06;5.68;;;3.85;;
33830;SDS011;20137;48.834;8.732;2022-12-07T07:50:32;7.07;;;3.65;;
33830;SDS011;20137;48.834;8.732;2022-12-07T07:52:58;11.10;;;4.10;;
33830;SDS011;20137;48.834;8.732;2022-12-07T07:55:24;11.38;;;5.45;;
33830;SDS011;20137;48.834;8.732;2022-12-07T07:57:50;8.30;;;4.40;;
33830;SDS011;20137;48.834;8.732;2022-12-07T08:00:16;8.15;;;3.65;;
33830;SDS011;20137;48.834;8.732;2022-12-07T08:02:42;9.55;;;3.75;;
33830;SDS011;20137;48.834;8.732;2022-12-07T08:05:09;8.35;;;3.90;;
33830;SDS011;20137;48.834;8.732;2022-12-07T08:07:36;7.18;;;3.83;;
33830;SDS011;20137;48.834;8.732;2022-12-07T08:10:02;7.15;;;4.72;;
33830;SDS011;20137;48.834;8.732;2022-12-07T08:12:28;8.15;;;3.83;;
33830;SDS011;20137;48.834;8.732;2022-12-07T08:14:54;8.65;;;4.30;;
33830;SDS011;20137;48.834;8.732;2022-12-07T08:17:20;10.10;;;4.32;;
33830;SDS011;20137;48.834;8.732;2022-12-07T08:19:46;7.07;;;4.00;;
33830;SDS011;20137;48.834;8.732;2022-12-07T08:22:12;6.88;;;4.32;;
33830;SDS011;20137;48.834;8.732;2022-12-07T08:24:38;6.65;;;3.88;;
33830;SDS011;20137;48.834;8.732;2022-12-07T08:27:04;6.72;;;4.28;;
33830;SDS011;20137;48.834;8.732;2022-12-07T08:29:30;9.32;;;4.50;;
33830;SDS011;20137;48.834;8.732;2022-12-07T08:31:56;7.38;;;4.15;;
33830;SDS011;20137;48.834;8.732;2022-12-07T08:34:22;7.03;;;3.92;;
33830;SDS011;20137;48.834;8.732;2022-12-07T08:36:48;6.78;;;4.10;;
33830;SDS011;20137;48.834;8.732;2022-12-07T08:39:14;9.13;;;4.13;;
33830;SDS011;20137;48.834;8.732;2022-12-07T08:41:40;7.43;;;4.28;;
33830;SDS011;20137;48.834;8.732;2022-12-07T08:44:06;7.35;;;4.43;;
33830;SDS011;20137;48.834;8.732;2022-12-07T08:46:40;8.93;;;4.65;;
33830;SDS011;20137;48.834;8.732;2022-12-07T08:49:14;7.60;;;3.72;;
33830;SDS011;20137;48.834;8.732;2022-12-07T08:51:42;8.77;;;4.93;;
33830;SDS011;20137;48.834;8.732;2022-12-07T08:54:09;8.20;;;3.88;;
33830;SDS011;20137;48.834;8.732;2022-12-07T08:56:36;7.20;;;3.88;;
33830;SDS011;20137;48.834;8.732;2022-12-07T08:59:02;7.28;;;4.32;;
33830;SDS011;20137;48.834;8.732;2022-12-07T09:01:29;7.50;;;4.07;;
33830;SDS011;20137;48.834;8.732;2022-12-07T09:03:55;10.07;;;4.65;;
33830;SDS011;20137;48.834;8.732;2022-12-07T09:06:21;11.40;;;5.10;;
33830;SDS011;20137;48.834;8.732;2022-12-07T09:08:47;9.00;;;4.00;;
33830;SDS011;20137;48.834;8.732;2022-12-07T09:11:15;7.18;;;4.00;;
33830;SDS011;20137;48.834;8.732;2022-12-07T09:13:41;6.65;;;3.85;;
33830;SDS011;20137;48.834;8.732;2022-12-07T09:16:07;8.73;;;4.32;;
33830;SDS011;20137;48.834;8.732;2022-12-07T09:18:33;7.57;;;4.25;;
33830;SDS011;20137;48.834;8.732;2022-12-07T09:20:59;9.00;;;4.53;;
33830;SDS011;20137;48.834;8.732;2022-12-07T09:23:25;8.73;;;4.68;;
33830;SDS011;20137;48.834;8.732;2022-12-07T09:25:51;9.35;;;4.20;;
33830;SDS011;20137;48.834;8.732;2022-12-07T09:28:17;9.05;;;4.07;;
33830;SDS011;20137;48.834;8.732;2022-12-07T09:30:46;7.55;;;4.70;;
33830;SDS011;20137;48.834;8.732;2022-12-07T09:33:12;9.32;;;4.55;;
33830;SDS011;20137;48.834;8.732;2022-12-07T09:35:43;8.82;;;4.60;;
33830;SDS011;20137;48.834;8.732;2022-12-07T09:38:10;9.45;;;4.28;;
33830;SDS011;20137;48.834;8.732;2022-12-07T09:40:36;7.47;;;3.92;;
33830;SDS011;20137;48.834;8.732;2022-12-07T09:43:02;8.10;;;4.57;;
33830;SDS011;20137;48.834;8.732;2022-12-07T09:45:32;7.72;;;4.22;;
33830;SDS011;20137;48.834;8.732;2022-12-07T09:47:59;9.35;;;4.30;;
33830;SDS011;20137;48.834;8.732;2022-12-07T09:50:28;7.40;;;4.28;;
33830;SDS011;20137;48.834;8.732;2022-12-07T09:52:55;9.00;;;4.50;;
33830;SDS011;20137;48.834;8.732;2022-12-07T09:55:26;7.97;;;4.22;;
33830;SDS011;20137;48.834;8.732;2022-12-07T09:57:53;7.00;;;3.83;;
33830;SDS011;20137;48.834;8.732;2022-12-07T10:00:20;4.68;;;2.85;;
33830;SDS011;20137;48.834;8.732;2022-12-07T10:02:57;6.88;;;3.47;;
33830;SDS011;20137;48.834;8.732;2022-12-07T10:05:25;8.95;;;4.22;;
33830;SDS011;20137;48.834;8.732;2022-12-07T10:07:53;5.93;;;3.60;;
33830;SDS011;20137;48.834;8.732;2022-12-07T10:10:23;5.65;;;3.28;;
33830;SDS011;20137;48.834;8.732;2022-12-07T10:13:03;5.03;;;3.17;;
33830;SDS011;20137;48.834;8.732;2022-12-07T10:15:43;6.50;;;3.22;;
33830;SDS011;20137;48.834;8.732;2022-12-07T10:21:13;5.35;;;3.28;;
33830;SDS011;20137;48.834;8.732;2022-12-07T10:23:40;7.45;;;3.42;;
33830;SDS011;20137;48.834;8.732;2022-12-07T10:30:07;5.80;;;3.50;;
33830;SDS011;20137;48.834;8.732;2022-12-07T10:34:34;5.40;;;3.70;;
33830;SDS011;20137;48.834;8.732;2022-12-07T10:40:00;8.02;;;4.78;;
33830;SDS011;20137;48.834;8.732;2022-12-07T10:42:26;6.93;;;4.22;;
33830;SDS011;20137;48.834;8.732;2022-12-07T10:53:09;7.60;;;4.00;;
33830;SDS011;20137;48.834;8.732;2022-12-07T10:58:15;7.32;;;4.18;;
33830;SDS011;20137;48.834;8.732;2022-12-07T11:03:36;9.27;;;4.75;;
33830;SDS011;20137;48.834;8.732;2022-12-07T11:13:37;6.80;;;4.65;;
33830;SDS011;20137;48.834;8.732;2022-12-07T11:31:34;8.82;;;5.63;;
33830;SDS011;20137;48.834;8.732;2022-12-07T11:34:08;8.38;;;4.70;;
33830;SDS011;20137;48.834;8.732;2022-12-07T11:36:40;9.20;;;4.88;;
33830;SDS011;20137;48.834;8.732;2022-12-07T11:41:42;8.15;;;5.15;;
33830;SDS011;20137;48.834;8.732;2022-12-07T11:44:20;11.23;;;5.47;;
33830;SDS011;20137;48.834;8.732;2022-12-07T11:46:53;11.82;;;6.43;;
33830;SDS011;20137;48.834;8.732;2022-12-07T11:49:36;12.82;;;6.78;;
33830;SDS011;20137;48.834;8.732;2022-12-07T11:52:04;14.23;;;7.72;;
33830;SDS011;20137;48.834;8.732;2022-12-07T11:54:32;12.13;;;7.28;;
33830;SDS011;20137;48.834;8.732;2022-12-07T11:57:02;13.25;;;6.93;;
33830;SDS011;20137;48.834;8.732;2022-12-07T11:59:39;14.20;;;7.65;;
33830;SDS011;20137;48.834;8.732;2022-12-07T12:02:15;15.90;;;8.15;;
33830;SDS011;20137;48.834;8.732;2022-12-07T12:07:21;24.40;;;10.60;;
33830;SDS011;20137;48.834;8.732;2022-12-07T12:22:42;15.07;;;7.40;;
33830;SDS011;20137;48.834;8.732;2022-12-07T12:27:55;17.10;;;7.95;;
33830;SDS011;20137;48.834;8.732;2022-12-07T12:33:31;14.30;;;8.30;;
33830;SDS011;20137;48.834;8.732;2022-12-07T12:38:47;18.92;;;8.55;;
33830;SDS011;20137;48.834;8.732;2022-12-07T12:43:58;13.85;;;8.13;;
33830;SDS011;20137;48.834;8.732;2022-12-07T12:54:20;13.75;;;7.95;;
33830;SDS011;20137;48.834;8.732;2022-12-07T12:56:55;15.23;;;7.43;;
33830;SDS011;20137;48.834;8.732;2022-12-07T13:02:08;12.10;;;7.25;;
33830;SDS011;20137;48.834;8.732;2022-12-07T13:07:08;24.05;;;11.85;;
33830;SDS011;20137;48.834;8.732;2022-12-07T13:09:36;18.52;;;8.93;;
33830;SDS011;20137;48.834;8.732;2022-12-07T13:12:03;19.20;;;9.65;;
33830;SDS011;20137;48.834;8.732;2022-12-07T13:17:12;10.32;;;6.50;;
33830;SDS011;20137;48.834;8.732;2022-12-07T13:20:04;14.02;;;7.72;;
33830;SDS011;20137;48.834;8.732;2022-12-07T13:25:17;14.20;;;7.68;;
33830;SDS011;20137;48.834;8.732;2022-12-07T13:27:48;15.20;;;8.02;;
33830;SDS011;20137;48.834;8.732;2022-12-07T13:30:18;12.48;;;7.43;;
33830;SDS011;20137;48.834;8.732;2022-12-07T13:32:54;13.75;;;8.13;;
33830;SDS011;20137;48.834;8.732;2022-12-07T13:35:27;13.52;;;7.45;;
33830;SDS011;20137;48.834;8.732;2022-12-07T13:37:53;14.30;;;7.65;;
33830;SDS011;20137;48.834;8.732;2022-12-07T13:40:20;15.60;;;7.88;;
33830;SDS011;20137;48.834;8.732;2022-12-07T13:42:46;16.80;;;7.88;;
33830;SDS011;20137;48.834;8.732;2022-12-07T13:48:16;12.98;;;6.93;;
33830;SDS011;20137;48.834;8.732;2022-12-07T13:50:52;13.48;;;7.10;;
33830;SDS011;20137;48.834;8.732;2022-12-07T13:53:18;13.38;;;6.85;;
33830;SDS011;20137;48.834;8.732;2022-12-07T13:55:45;16.20;;;7.60;;
33830;SDS011;20137;48.834;8.732;2022-12-07T13:58:11;14.00;;;7.90;;
33830;SDS011;20137;48.834;8.732;2022-12-07T14:00:37;14.75;;;8.18;;
33830;SDS011;20137;48.834;8.732;2022-12-07T14:03:04;13.82;;;7.80;;
33830;SDS011;20137;48.834;8.732;2022-12-07T14:05:46;19.00;;;9.73;;
33830;SDS011;20137;48.834;8.732;2022-12-07T14:10:40;20.60;;;9.07;;
33830;SDS011;20137;48.834;8.732;2022-12-07T14:13:26;19.85;;;10.63;;
33830;SDS011;20137;48.834;8.732;2022-12-07T14:15:53;23.17;;;11.85;;
33830;SDS011;20137;48.834;8.732;2022-12-07T14:18:40;23.27;;;10.60;;
33830;SDS011;20137;48.834;8.732;2022-12-07T14:23:35;22.17;;;11.27;;
33830;SDS011;20137;48.834;8.732;2022-12-07T14:26:14;25.30;;;12.07;;
33830;SDS011;20137;48.834;8.732;2022-12-07T14:28:41;24.50;;;11.50;;
33830;SDS011;20137;48.834;8.732;2022-12-07T14:31:15;22.13;;;11.52;;
33830;SDS011;20137;48.834;8.732;2022-12-07T14:33:42;20.17;;;10.48;;
33830;SDS011;20137;48.834;8.732;2022-12-07T14:36:11;25.45;;;11.02;;
33830;SDS011;20137;48.834;8.732;2022-12-07T14:38:37;21.25;;;11.05;;
33830;SDS011;20137;48.834;8.732;2022-12-07T14:41:04;26.50;;;12.95;;
33830;SDS011;20137;48.834;8.732;2022-12-07T14:43:50;23.10;;;11.07;;
33830;SDS011;20137;48.834;8.732;2022-12-07T14:46:16;31.77;;;13.13;;
33830;SDS011;20137;48.834;8.732;2022-12-07T14:48:42;22.92;;;11.27;;
33830;SDS011;20137;48.834;8.732;2022-12-07T14:51:09;20.75;;;10.18;;
33830;SDS011;20137;48.834;8.732;2022-12-07T14:53:39;21.55;;;10.50;;
33830;SDS011;20137;48.834;8.732;2022-12-07T14:56:06;26.88;;;12.18;;
33830;SDS011;20137;48.834;8.732;2022-12-07T14:58:32;28.25;;;11.48;;
33830;SDS011;20137;48.834;8.732;2022-12-07T15:00:58;30.23;;;12.73;;
33830;SDS011;20137;48.834;8.732;2022-12-07T15:03:25;32.15;;;13.60;;
33830;SDS011;20137;48.834;8.732;2022-12-07T15:05:51;29.90;;;14.02;;
33830;SDS011;20137;48.834;8.732;2022-12-07T15:08:17;27.55;;;12.40;;
33830;SDS011;20137;48.834;8.732;2022-12-07T15:10:43;23.75;;;12.23;;
33830;SDS011;20137;48.834;8.732;2022-12-07T15:13:09;23.42;;;12.68;;
33830;SDS011;20137;48.834;8.732;2022-12-07T15:15:54;25.55;;;12.10;;
33830;SDS011;20137;48.834;8.732;2022-12-07T15:18:21;28.63;;;12.95;;
33830;SDS011;20137;48.834;8.732;2022-12-07T15:20:47;23.08;;;12.25;;
33830;SDS011;20137;48.834;8.732;2022-12-07T15:23:13;25.05;;;12.38;;
33830;SDS011;20137;48.834;8.732;2022-12-07T15:25:40;26.30;;;13.68;;
33830;SDS011;20137;48.834;8.732;2022-12-07T15:28:06;30.08;;;13.45;;
33830;SDS011;20137;48.834;8.732;2022-12-07T15:30:32;25.15;;;12.68;;
33830;SDS011;20137;48.834;8.732;2022-12-07T15:32:58;27.85;;;12.77;;
33830;SDS011;20137;48.834;8.732;2022-12-07T15:35:24;25.52;;;11.82;;
33830;SDS011;20137;48.834;8.732;2022-12-07T15:37:50;22.77;;;12.02;;
33830;SDS011;20137;48.834;8.732;2022-12-07T15:40:16;24.55;;;12.27;;
33830;SDS011;20137;48.834;8.732;2022-12-07T15:42:46;24.75;;;12.65;;
33830;SDS011;20137;48.834;8.732;2022-12-07T15:45:12;25.08;;;12.27;;
33830;SDS011;20137;48.834;8.732;2022-12-07T15:47:42;26.88;;;12.95;;
33830;SDS011;20137;48.834;8.732;2022-12-07T15:50:13;27.88;;;14.00;;
33830;SDS011;20137;48.834;8.732;2022-12-07T15:52:39;29.52;;;13.95;;
33830;SDS011;20137;48.834;8.732;2022-12-07T15:55:05;33.45;;;15.85;;
33830;SDS011;20137;48.834;8.732;2022-12-07T15:57:34;34.22;;;15.80;;
33830;SDS011;20137;48.834;8.732;2022-12-07T16:00:02;28.02;;;14.70;;
33830;SDS011;20137;48.834;8.732;2022-12-07T16:02:28;29.15;;;15.20;;
33830;SDS011;20137;48.834;8.732;2022-12-07T16:04:54;34.05;;;17.45;;
33830;SDS011;20137;48.834;8.732;2022-12-07T16:07:20;28.95;;;14.85;;
33830;SDS011;20137;48.834;8.732;2022-12-07T16:09:47;28.10;;;15.10;;
33830;SDS011;20137;48.834;8.732;2022-12-07T16:12:14;25.02;;;13.93;;
33830;SDS011;20137;48.834;8.732;2022-12-07T16:14:41;28.85;;;14.30;;
33830;SDS011;20137;48.834;8.732;2022-12-07T16:17:07;23.77;;;12.82;;
33830;SDS011;20137;48.834;8.732;2022-12-07T16:19:34;23.88;;;13.52;;
33830;SDS011;20137;48.834;8.732;2022-12-07T16:22:00;27.45;;;14.50;;
33830;SDS011;20137;48.834;8.732;2022-12-07T16:24:26;26.13;;;14.05;;
33830;SDS011;20137;48.834;8.732;2022-12-07T16:26:52;28.45;;;15.10;;
33830;SDS011;20137;48.834;8.732;2022-12-07T16:29:19;28.73;;;14.60;;
33830;SDS011;20137;48.834;8.732;2022-12-07T16:31:45;22.35;;;12.85;;
33830;SDS011;20137;48.834;8.732;2022-12-07T16:34:11;23.95;;;12.50;;
33830;SDS011;20137;48.834;8.732;2022-12-07T16:36:37;29.42;;;15.02;;
33830;SDS011;20137;48.834;8.732;2022-12-07T16:39:04;28.80;;;15.15;;
33830;SDS011;20137;48.834;8.732;2022-12-07T16:41:30;28.70;;;16.00;;
33830;SDS011;20137;48.834;8.732;2022-12-07T16:43:56;26.92;;;14.88;;
33830;SDS011;20137;48.834;8.732;2022-12-07T16:46:22;24.77;;;14.00;;
33830;SDS011;20137;48.834;8.732;2022-12-07T16:48:48;28.88;;;14.52;;
33830;SDS011;20137;48.834;8.732;2022-12-07T16:51:14;27.30;;;15.77;;
33830;SDS011;20137;48.834;8.732;2022-12-07T16:53:41;30.48;;;16.42;;